sensor_id;sensor_type;location;lat;lon;timestamp;pressure;altitude;pressure_sealevel;temperature;humidity
53719;BME280;39616;48.872;9.390;2023-05-23T00:00:23;98140.38;;;14.50;100.00
53719;BME280;39616;48.872;9.390;2023-05-23T00:02:54;98144.19;;;14.49;100.00
53719;BME280;39616;48.872;9.390;2023-05-23T00:05:24;98136.34;;;14.47;100.00
53719;BME280;39616;48.872;9.390;2023-05-23T00:07:55;98142.91;;;14.46;100.00
53719;BME280;39616;48.872;9.390;2023-05-23T00:10:26;98141.97;;;14.42;100.00
53719;BME280;39616;48.872;9.390;2023-05-23T00:12:56;98141.50;;;14.40;100.00
53719;BME280;39616;48.872;9.390;2023-05-23T00:15:27;98138.63;;;14.37;100.00
53719;BME280;39616;48.872;9.390;2023-05-23T00:17:57;98138.28;;;14.38;100.00
53719;BME280;39616;48.872;9.390;2023-05-23T00:20:29;98157.72;;;14.37;100.00
53719;BME280;39616;48.872;9.390;2023-05-23T00:22:59;98146.81;;;14.37;100.00
53719;BME280;39616;48.872;9.390;2023-05-23T00:25:29;98152.72;;;14.39;100.00
53719;BME280;39616;48.872;9.390;2023-05-23T00:28:03;98146.31;;;14.35;100.00
53719;BME280;39616;48.872;9.390;2023-05-23T00:30:34;98141.22;;;14.33;100.00
53719;BME280;39616;48.872;9.390;2023-05-23T00:33:04;98150.19;;;14.34;100.00
53719;BME280;39616;48.872;9.390;2023-05-23T00:35:35;98144.69;;;14.42;100.00
53719;BME280;39616;48.872;9.390;2023-05-23T00:38:05;98157.06;;;14.40;100.00
53719;BME280;39616;48.872;9.390;2023-05-23T00:40:36;98151.94;;;14.38;100.00
53719;BME280;39616;48.872;9.390;2023-05-23T00:43:07;98152.91;;;14.34;100.00
53719;BME280;39616;48.872;9.390;2023-05-23T00:45:37;98155.81;;;14.29;100.00
53719;BME280;39616;48.872;9.390;2023-05-23T00:48:07;98154.69;;;14.30;100.00
53719;BME280;39616;48.872;9.390;2023-05-23T00:50:38;98159.84;;;14.22;100.00
53719;BME280;39616;48.872;9.390;2023-05-23T00:53:08;98149.59;;;14.11;100.00
53719;BME280;39616;48.872;9.390;2023-05-23T00:55:39;98153.94;;;14.03;100.00
53719;BME280;39616;48.872;9.390;2023-05-23T00:58:10;98150.56;;;13.97;100.00
53719;BME280;39616;48.872;9.390;2023-05-23T01:00:41;98158.13;;;13.92;100.00
53719;BME280;39616;48.872;9.390;2023-05-23T01:03:11;98158.44;;;13.90;100.00
53719;BME280;39616;48.872;9.390;2023-05-23T01:05:47;98156.34;;;13.87;100.00
53719;BME280;39616;48.872;9.390;2023-05-23T01:08:17;98158.59;;;13.85;100.00
53719;BME280;39616;48.872;9.390;2023-05-23T01:10:47;98160.69;;;13.88;100.00
53719;BME280;39616;48.872;9.390;2023-05-23T01:16:11;98173.66;;;13.91;100.00
53719;BME280;39616;48.872;9.390;2023-05-23T01:18:52;98173.50;;;13.88;100.00
53719;BME280;39616;48.872;9.390;2023-05-23T01:21:27;98171.09;;;13.86;100.00
53719;BME280;39616;48.872;9.390;2023-05-23T01:24:40;98174.78;;;13.99;100.00
53719;BME280;39616;48.872;9.390;2023-05-23T01:30:08;98162.91;;;13.95;100.00
53719;BME280;39616;48.872;9.390;2023-05-23T01:32:40;98159.38;;;13.94;100.00
53719;BME280;39616;48.872;9.390;2023-05-23T01:35:13;98162.59;;;13.96;100.00
53719;BME280;39616;48.872;9.390;2023-05-23T01:37:48;98163.09;;;13.90;100.00
53719;BME280;39616;48.872;9.390;2023-05-23T01:40:19;98156.97;;;13.84;100.00
53719;BME280;39616;48.872;9.390;2023-05-23T01:42:51;98161.47;;;13.80;100.00
53719;BME280;39616;48.872;9.390;2023-05-23T01:45:25;98168.69;;;13.76;100.00
53719;BME280;39616;48.872;9.390;2023-05-23T01:47:56;98153.81;;;13.73;100.00
53719;BME280;39616;48.872;9.390;2023-05-23T01:50:27;98168.88;;;13.71;100.00
53719;BME280;39616;48.872;9.390;2023-05-23T01:52:58;98168.38;;;13.69;100.00
53719;BME280;39616;48.872;9.390;2023-05-23T01:55:29;98169.84;;;13.66;100.00
53719;BME280;39616;48.872;9.390;2023-05-23T01:58:01;98172.56;;;13.66;100.00
53719;BME280;39616;48.872;9.390;2023-05-23T02:00:31;98175.75;;;13.68;100.00
53719;BME280;39616;48.872;9.390;2023-05-23T02:03:02;98177.34;;;13.69;100.00
53719;BME280;39616;48.872;9.390;2023-05-23T02:05:32;98174.31;;;13.71;100.00
53719;BME280;39616;48.872;9.390;2023-05-23T02:08:03;98175.13;;;13.71;100.00
53719;BME280;39616;48.872;9.390;2023-05-23T02:10:33;98167.75;;;13.72;100.00
53719;BME280;39616;48.872;9.390;2023-05-23T02:13:03;98170.63;;;13.75;100.00
53719;BME280;39616;48.872;9.390;2023-05-23T02:15:33;98169.81;;;13.75;100.00
53719;BME280;39616;48.872;9.390;2023-05-23T02:18:04;98175.44;;;13.78;100.00
53719;BME280;39616;48.872;9.390;2023-05-23T02:20:35;98187.94;;;13.80;100.00
53719;BME280;39616;48.872;9.390;2023-05-23T02:23:05;98177.06;;;13.88;100.00
53719;BME280;39616;48.872;9.390;2023-05-23T02:25:36;98177.34;;;13.87;100.00
53719;BME280;39616;48.872;9.390;2023-05-23T02:28:06;98178.47;;;13.94;100.00
53719;BME280;39616;48.872;9.390;2023-05-23T02:30:36;98181.69;;;13.96;100.00
53719;BME280;39616;48.872;9.390;2023-05-23T02:33:06;98170.44;;;13.98;100.00
53719;BME280;39616;48.872;9.390;2023-05-23T02:35:37;98177.81;;;13.97;100.00
53719;BME280;39616;48.872;9.390;2023-05-23T02:38:07;98178.31;;;13.99;100.00
53719;BME280;39616;48.872;9.390;2023-05-23T02:40:37;98184.56;;;14.00;100.00
53719;BME280;39616;48.872;9.390;2023-05-23T02:43:08;98178.31;;;13.99;100.00
53719;BME280;39616;48.872;9.390;2023-05-23T02:45:38;98190.19;;;14.04;100.00
53719;BME280;39616;48.872;9.390;2023-05-23T02:48:08;98185.84;;;14.11;100.00
53719;BME280;39616;48.872;9.390;2023-05-23T02:50:39;98181.34;;;14.15;100.00
53719;BME280;39616;48.872;9.390;2023-05-23T02:53:09;98185.66;;;14.16;100.00
53719;BME280;39616;48.872;9.390;2023-05-23T02:55:39;98187.41;;;14.21;100.00
53719;BME280;39616;48.872;9.390;2023-05-23T02:58:10;98182.78;;;14.21;100.00
53719;BME280;39616;48.872;9.390;2023-05-23T03:00:40;98187.56;;;14.24;100.00
53719;BME280;39616;48.872;9.390;2023-05-23T03:03:12;98190.44;;;14.28;100.00
53719;BME280;39616;48.872;9.390;2023-05-23T03:05:43;98194.13;;;14.32;100.00
53719;BME280;39616;48.872;9.390;2023-05-23T03:08:13;98193.19;;;14.37;100.00
53719;BME280;39616;48.872;9.390;2023-05-23T03:10:43;98197.66;;;14.41;100.00
53719;BME280;39616;48.872;9.390;2023-05-23T03:13:14;98193.94;;;14.46;100.00
53719;BME280;39616;48.872;9.390;2023-05-23T03:15:45;98196.84;;;14.49;100.00
53719;BME280;39616;48.872;9.390;2023-05-23T03:18:15;98201.66;;;14.53;100.00
53719;BME280;39616;48.872;9.390;2023-05-23T03:20:46;98204.56;;;14.56;100.00
53719;BME280;39616;48.872;9.390;2023-05-23T03:23:16;98206.28;;;14.61;100.00
53719;BME280;39616;48.872;9.390;2023-05-23T03:25:46;98208.88;;;14.66;100.00
53719;BME280;39616;48.872;9.390;2023-05-23T03:28:17;98208.34;;;14.72;100.00
53719;BME280;39616;48.872;9.390;2023-05-23T03:30:47;98205.31;;;14.74;100.00
53719;BME280;39616;48.872;9.390;2023-05-23T03:33:17;98203.03;;;14.76;100.00
53719;BME280;39616;48.872;9.390;2023-05-23T03:35:47;98207.84;;;14.79;100.00
53719;BME280;39616;48.872;9.390;2023-05-23T03:38:18;98204.81;;;14.81;100.00
53719;BME280;39616;48.872;9.390;2023-05-23T03:40:48;98206.53;;;14.85;100.00
53719;BME280;39616;48.872;9.390;2023-05-23T03:43:18;98206.53;;;14.85;100.00
53719;BME280;39616;48.872;9.390;2023-05-23T03:45:49;98207.97;;;14.91;100.00
53719;BME280;39616;48.872;9.390;2023-05-23T03:48:19;98216.16;;;14.91;100.00
53719;BME280;39616;48.872;9.390;2023-05-23T03:50:49;98205.41;;;14.95;100.00
53719;BME280;39616;48.872;9.390;2023-05-23T03:53:20;98206.34;;;14.99;100.00
53719;BME280;39616;48.872;9.390;2023-05-23T03:55:50;98206.94;;;15.05;100.00
53719;BME280;39616;48.872;9.390;2023-05-23T03:58:23;98203.91;;;15.06;100.00
53719;BME280;39616;48.872;9.390;2023-05-23T04:00:53;98206.78;;;15.10;100.00
53719;BME280;39616;48.872;9.390;2023-05-23T04:03:23;98207.38;;;15.15;100.00
53719;BME280;39616;48.872;9.390;2023-05-23T04:05:55;98206.88;;;15.22;100.00
53719;BME280;39616;48.872;9.390;2023-05-23T04:08:26;98211.31;;;15.27;100.00
53719;BME280;39616;48.872;9.390;2023-05-23T04:11:01;98211.63;;;15.34;100.00
53719;BME280;39616;48.872;9.390;2023-05-23T04:13:32;98218.28;;;15.45;100.00
53719;BME280;39616;48.872;9.390;2023-05-23T04:16:02;98217.34;;;15.41;100.00
53719;BME280;39616;48.872;9.390;2023-05-23T04:18:34;98223.44;;;15.46;100.00
53719;BME280;39616;48.872;9.390;2023-05-23T04:21:08;98222.44;;;15.51;100.00
53719;BME280;39616;48.872;9.390;2023-05-23T04:23:38;98227.72;;;15.56;100.00
53719;BME280;39616;48.872;9.390;2023-05-23T04:26:08;98220.97;;;15.54;100.00
53719;BME280;39616;48.872;9.390;2023-05-23T04:28:39;98227.53;;;15.61;100.00
53719;BME280;39616;48.872;9.390;2023-05-23T04:31:09;98228.50;;;15.57;100.00
53719;BME280;39616;48.872;9.390;2023-05-23T04:33:40;98218.56;;;15.52;100.00
53719;BME280;39616;48.872;9.390;2023-05-23T04:36:10;98225.34;;;15.46;100.00
53719;BME280;39616;48.872;9.390;2023-05-23T04:38:40;98221.78;;;15.54;100.00
53719;BME280;39616;48.872;9.390;2023-05-23T04:41:11;98229.31;;;15.57;100.00
53719;BME280;39616;48.872;9.390;2023-05-23T04:43:41;98229.00;;;15.59;100.00
53719;BME280;39616;48.872;9.390;2023-05-23T04:46:11;98241.19;;;15.61;100.00
53719;BME280;39616;48.872;9.390;2023-05-23T04:48:42;98243.09;;;15.61;100.00
53719;BME280;39616;48.872;9.390;2023-05-23T04:51:13;98241.31;;;15.74;100.00
53719;BME280;39616;48.872;9.390;2023-05-23T04:53:44;98241.31;;;15.74;100.00
53719;BME280;39616;48.872;9.390;2023-05-23T04:56:15;98242.44;;;15.73;100.00
53719;BME280;39616;48.872;9.390;2023-05-23T04:58:46;98242.38;;;15.81;100.00
53719;BME280;39616;48.872;9.390;2023-05-23T05:01:17;98240.50;;;15.73;100.00
53719;BME280;39616;48.872;9.390;2023-05-23T05:03:47;98245.63;;;15.75;100.00
53719;BME280;39616;48.872;9.390;2023-05-23T05:06:18;98246.66;;;15.91;100.00
53719;BME280;39616;48.872;9.390;2023-05-23T05:08:50;98246.19;;;16.10;100.00
53719;BME280;39616;48.872;9.390;2023-05-23T05:11:20;98252.09;;;16.12;100.00
53719;BME280;39616;48.872;9.390;2023-05-23T05:13:51;98253.91;;;16.08;100.00
53719;BME280;39616;48.872;9.390;2023-05-23T05:16:21;98260.97;;;16.09;100.00
53719;BME280;39616;48.872;9.390;2023-05-23T05:18:51;98257.97;;;16.23;100.00
53719;BME280;39616;48.872;9.390;2023-05-23T05:21:22;98264.97;;;16.11;100.00
53719;BME280;39616;48.872;9.390;2023-05-23T05:23:52;98270.06;;;16.22;100.00
53719;BME280;39616;48.872;9.390;2023-05-23T05:26:23;98267.31;;;16.22;100.00
53719;BME280;39616;48.872;9.390;2023-05-23T05:28:53;98265.38;;;16.22;100.00
53719;BME280;39616;48.872;9.390;2023-05-23T05:31:24;98268.72;;;16.28;100.00
53719;BME280;39616;48.872;9.390;2023-05-23T05:33:54;98261.22;;;16.37;100.00
53719;BME280;39616;48.872;9.390;2023-05-23T05:36:25;98267.66;;;16.20;100.00
53719;BME280;39616;48.872;9.390;2023-05-23T05:38:55;98257.31;;;16.26;100.00
53719;BME280;39616;48.872;9.390;2023-05-23T05:41:25;98265.78;;;16.33;100.00
53719;BME280;39616;48.872;9.390;2023-05-23T05:43:56;98264.22;;;16.44;100.00
53719;BME280;39616;48.872;9.390;2023-05-23T05:46:26;98266.34;;;16.38;100.00
53719;BME280;39616;48.872;9.390;2023-05-23T05:48:56;98259.13;;;16.55;100.00
53719;BME280;39616;48.872;9.390;2023-05-23T05:51:26;98264.81;;;16.50;100.00
53719;BME280;39616;48.872;9.390;2023-05-23T05:53:57;98264.19;;;16.32;100.00
53719;BME280;39616;48.872;9.390;2023-05-23T05:56:27;98262.75;;;16.47;100.00
53719;BME280;39616;48.872;9.390;2023-05-23T05:58:57;98259.94;;;16.67;100.00
53719;BME280;39616;48.872;9.390;2023-05-23T06:01:28;98257.03;;;16.73;100.00
53719;BME280;39616;48.872;9.390;2023-05-23T06:03:59;98262.91;;;16.83;100.00
53719;BME280;39616;48.872;9.390;2023-05-23T06:06:30;98268.94;;;16.89;100.00
53719;BME280;39616;48.872;9.390;2023-05-23T06:09:01;98275.13;;;16.98;100.00
53719;BME280;39616;48.872;9.390;2023-05-23T06:11:31;98274.59;;;17.05;100.00
53719;BME280;39616;48.872;9.390;2023-05-23T06:14:02;98270.56;;;16.90;100.00
53719;BME280;39616;48.872;9.390;2023-05-23T06:16:32;98273.84;;;16.83;100.00
53719;BME280;39616;48.872;9.390;2023-05-23T06:19:02;98275.78;;;16.83;100.00
53719;BME280;39616;48.872;9.390;2023-05-23T06:21:32;98275.91;;;16.86;100.00
53719;BME280;39616;48.872;9.390;2023-05-23T06:24:03;98275.47;;;16.97;100.00
53719;BME280;39616;48.872;9.390;2023-05-23T06:26:33;98277.09;;;16.98;100.00
53719;BME280;39616;48.872;9.390;2023-05-23T06:29:04;98276.38;;;16.88;100.00
53719;BME280;39616;48.872;9.390;2023-05-23T06:31:34;98281.53;;;16.90;100.00
53719;BME280;39616;48.872;9.390;2023-05-23T06:34:04;98286.09;;;16.98;100.00
53719;BME280;39616;48.872;9.390;2023-05-23T06:36:35;98284.03;;;16.95;100.00
53719;BME280;39616;48.872;9.390;2023-05-23T06:39:05;98290.19;;;16.71;100.00
53719;BME280;39616;48.872;9.390;2023-05-23T06:41:38;98292.66;;;16.85;100.00
53719;BME280;39616;48.872;9.390;2023-05-23T06:44:09;98291.06;;;16.84;100.00
53719;BME280;39616;48.872;9.390;2023-05-23T06:46:39;98299.41;;;16.87;100.00
53719;BME280;39616;48.872;9.390;2023-05-23T06:49:09;98297.69;;;16.83;100.00
53719;BME280;39616;48.872;9.390;2023-05-23T06:51:40;98302.09;;;16.75;100.00
53719;BME280;39616;48.872;9.390;2023-05-23T06:54:10;98304.97;;;16.79;100.00
53719;BME280;39616;48.872;9.390;2023-05-23T06:56:40;98308.09;;;16.89;100.00
53719;BME280;39616;48.872;9.390;2023-05-23T06:59:11;98310.25;;;16.84;100.00
53719;BME280;39616;48.872;9.390;2023-05-23T07:01:41;98308.91;;;16.90;100.00
53719;BME280;39616;48.872;9.390;2023-05-23T07:04:11;98314.28;;;16.99;100.00
53719;BME280;39616;48.872;9.390;2023-05-23T07:06:42;98312.09;;;16.92;100.00
53719;BME280;39616;48.872;9.390;2023-05-23T07:09:12;98315.31;;;16.94;100.00
53719;BME280;39616;48.872;9.390;2023-05-23T07:11:43;98319.03;;;16.89;100.00
53719;BME280;39616;48.872;9.390;2023-05-23T07:14:14;98323.59;;;16.85;100.00
53719;BME280;39616;48.872;9.390;2023-05-23T07:16:44;98323.84;;;16.93;100.00
53719;BME280;39616;48.872;9.390;2023-05-23T07:19:15;98324.31;;;16.95;100.00
53719;BME280;39616;48.872;9.390;2023-05-23T07:21:45;98326.44;;;16.77;100.00
53719;BME280;39616;48.872;9.390;2023-05-23T07:24:15;98336.09;;;16.74;100.00
53719;BME280;39616;48.872;9.390;2023-05-23T07:26:46;98336.59;;;16.67;100.00
53719;BME280;39616;48.872;9.390;2023-05-23T07:29:16;98335.22;;;16.61;100.00
53719;BME280;39616;48.872;9.390;2023-05-23T07:31:47;98339.16;;;16.73;100.00
53719;BME280;39616;48.872;9.390;2023-05-23T07:34:17;98338.03;;;16.74;100.00
53719;BME280;39616;48.872;9.390;2023-05-23T07:36:47;98334.47;;;16.73;100.00
53719;BME280;39616;48.872;9.390;2023-05-23T07:39:19;98331.88;;;17.10;100.00
53719;BME280;39616;48.872;9.390;2023-05-23T07:41:51;98339.44;;;17.13;100.00
53719;BME280;39616;48.872;9.390;2023-05-23T07:44:21;98339.91;;;17.27;100.00
53719;BME280;39616;48.872;9.390;2023-05-23T07:46:52;98336.59;;;17.22;100.00
53719;BME280;39616;48.872;9.390;2023-05-23T07:49:22;98335.00;;;17.21;100.00
53719;BME280;39616;48.872;9.390;2023-05-23T07:51:52;98334.69;;;17.71;100.00
53719;BME280;39616;48.872;9.390;2023-05-23T07:54:23;98338.25;;;18.08;100.00
53719;BME280;39616;48.872;9.390;2023-05-23T07:56:53;98335.38;;;18.05;100.00
53719;BME280;39616;48.872;9.390;2023-05-23T07:59:23;98342.50;;;17.94;99.89
53719;BME280;39616;48.872;9.390;2023-05-23T08:01:54;98338.34;;;18.12;96.56
53719;BME280;39616;48.872;9.390;2023-05-23T08:04:24;98343.84;;;18.00;95.64
53719;BME280;39616;48.872;9.390;2023-05-23T08:06:55;98348.06;;;18.09;95.83
53719;BME280;39616;48.872;9.390;2023-05-23T08:09:25;98353.81;;;17.80;95.15
53719;BME280;39616;48.872;9.390;2023-05-23T08:11:56;98356.09;;;17.90;95.55
53719;BME280;39616;48.872;9.390;2023-05-23T08:14:26;98349.88;;;17.69;97.04
53719;BME280;39616;48.872;9.390;2023-05-23T08:16:56;98362.59;;;17.98;96.84
53719;BME280;39616;48.872;9.390;2023-05-23T08:19:27;98360.31;;;17.88;95.69
53719;BME280;39616;48.872;9.390;2023-05-23T08:21:57;98359.97;;;17.77;94.25
53719;BME280;39616;48.872;9.390;2023-05-23T08:24:28;98363.28;;;17.95;95.00
53719;BME280;39616;48.872;9.390;2023-05-23T08:26:59;98363.84;;;18.13;92.00
53719;BME280;39616;48.872;9.390;2023-05-23T08:29:29;98377.56;;;17.88;93.23
53719;BME280;39616;48.872;9.390;2023-05-23T08:32:00;98370.38;;;17.96;94.09
53719;BME280;39616;48.872;9.390;2023-05-23T08:34:30;98369.09;;;18.18;91.20
53719;BME280;39616;48.872;9.390;2023-05-23T08:37:00;98372.63;;;18.18;90.64
53719;BME280;39616;48.872;9.390;2023-05-23T08:39:30;98375.06;;;17.95;92.54
53719;BME280;39616;48.872;9.390;2023-05-23T08:42:01;98378.50;;;18.04;92.23
53719;BME280;39616;48.872;9.390;2023-05-23T08:44:31;98380.19;;;17.97;92.69
53719;BME280;39616;48.872;9.390;2023-05-23T08:47:02;98388.72;;;17.46;92.60
53719;BME280;39616;48.872;9.390;2023-05-23T08:49:37;98380.44;;;17.79;93.31
53719;BME280;39616;48.872;9.390;2023-05-23T08:52:11;98382.56;;;17.61;92.75
53719;BME280;39616;48.872;9.390;2023-05-23T08:54:42;98397.63;;;17.55;90.73
53719;BME280;39616;48.872;9.390;2023-05-23T08:57:13;98388.66;;;17.92;92.27
53719;BME280;39616;48.872;9.390;2023-05-23T08:59:43;98390.91;;;18.39;87.78
53719;BME280;39616;48.872;9.390;2023-05-23T09:02:16;98402.38;;;18.16;87.78
53719;BME280;39616;48.872;9.390;2023-05-23T09:04:47;98403.97;;;18.05;88.57
53719;BME280;39616;48.872;9.390;2023-05-23T09:07:18;98398.38;;;17.89;90.34
53719;BME280;39616;48.872;9.390;2023-05-23T09:09:49;98409.44;;;17.93;89.07
53719;BME280;39616;48.872;9.390;2023-05-23T09:12:20;98404.44;;;17.82;89.41
53719;BME280;39616;48.872;9.390;2023-05-23T09:14:51;98404.13;;;17.63;91.10
53719;BME280;39616;48.872;9.390;2023-05-23T09:17:21;98406.25;;;17.91;89.73
53719;BME280;39616;48.872;9.390;2023-05-23T09:19:52;98416.69;;;17.52;89.51
53719;BME280;39616;48.872;9.390;2023-05-23T09:22:23;98419.97;;;17.45;88.88
53719;BME280;39616;48.872;9.390;2023-05-23T09:24:57;98412.22;;;17.35;88.12
53719;BME280;39616;48.872;9.390;2023-05-23T09:27:27;98417.09;;;17.75;87.81
53719;BME280;39616;48.872;9.390;2023-05-23T09:30:04;98417.09;;;17.75;86.79
53719;BME280;39616;48.872;9.390;2023-05-23T09:32:35;98418.81;;;18.04;86.60
53719;BME280;39616;48.872;9.390;2023-05-23T09:35:06;98415.00;;;18.57;82.42
53719;BME280;39616;48.872;9.390;2023-05-23T09:37:42;98422.78;;;18.55;81.16
53719;BME280;39616;48.872;9.390;2023-05-23T09:40:15;98418.63;;;18.74;80.21
53719;BME280;39616;48.872;9.390;2023-05-23T09:42:46;98419.69;;;18.57;79.28
53719;BME280;39616;48.872;9.390;2023-05-23T09:45:17;98432.44;;;18.13;81.46
53719;BME280;39616;48.872;9.390;2023-05-23T09:47:51;98431.19;;;18.34;79.77
53719;BME280;39616;48.872;9.390;2023-05-23T09:50:22;98429.69;;;18.13;81.46
53719;BME280;39616;48.872;9.390;2023-05-23T09:52:53;98428.66;;;17.93;81.80
53719;BME280;39616;48.872;9.390;2023-05-23T09:55:23;98435.00;;;17.72;81.44
53719;BME280;39616;48.872;9.390;2023-05-23T09:57:54;98433.78;;;17.82;80.08
53719;BME280;39616;48.872;9.390;2023-05-23T10:00:27;98433.31;;;17.68;80.92
53719;BME280;39616;48.872;9.390;2023-05-23T10:03:09;98433.19;;;17.64;81.68
53719;BME280;39616;48.872;9.390;2023-05-23T10:05:46;98430.84;;;17.99;79.57
53719;BME280;39616;48.872;9.390;2023-05-23T10:08:29;98427.06;;;18.28;78.55
53719;BME280;39616;48.872;9.390;2023-05-23T10:13:45;98427.28;;;18.11;79.03
53719;BME280;39616;48.872;9.390;2023-05-23T10:16:22;98439.97;;;18.40;77.87
53719;BME280;39616;48.872;9.390;2023-05-23T10:19:01;98432.31;;;17.97;76.80
53719;BME280;39616;48.872;9.390;2023-05-23T10:21:39;98429.69;;;18.00;77.68
53719;BME280;39616;48.872;9.390;2023-05-23T10:24:12;98431.19;;;18.10;77.12
53719;BME280;39616;48.872;9.390;2023-05-23T10:26:43;98432.44;;;17.76;77.23
53719;BME280;39616;48.872;9.390;2023-05-23T10:29:14;98432.31;;;17.84;78.92
53719;BME280;39616;48.872;9.390;2023-05-23T10:31:45;98432.88;;;18.15;77.98
53719;BME280;39616;48.872;9.390;2023-05-23T10:34:46;98436.66;;;18.10;76.46
53719;BME280;39616;48.872;9.390;2023-05-23T10:37:30;98436.53;;;18.43;76.33
53719;BME280;39616;48.872;9.390;2023-05-23T10:40:09;98433.06;;;18.58;74.75
53719;BME280;39616;48.872;9.390;2023-05-23T10:45:39;98447.25;;;18.73;73.85
53719;BME280;39616;48.872;9.390;2023-05-23T10:51:07;98441.03;;;18.23;74.55
53719;BME280;39616;48.872;9.390;2023-05-23T10:53:45;98444.53;;;18.36;74.90
53719;BME280;39616;48.872;9.390;2023-05-23T10:56:21;98439.13;;;18.52;73.94
53719;BME280;39616;48.872;9.390;2023-05-23T10:58:53;98449.13;;;17.95;74.62
53719;BME280;39616;48.872;9.390;2023-05-23T11:01:25;98444.31;;;17.92;75.29
53719;BME280;39616;48.872;9.390;2023-05-23T11:03:56;98449.59;;;18.09;73.69
53719;BME280;39616;48.872;9.390;2023-05-23T11:06:36;98444.66;;;18.15;72.95
53719;BME280;39616;48.872;9.390;2023-05-23T11:09:15;98448.78;;;18.09;74.11
53719;BME280;39616;48.872;9.390;2023-05-23T11:17:14;98450.38;;;18.10;71.97
53719;BME280;39616;48.872;9.390;2023-05-23T11:20:00;98460.88;;;17.83;73.07
53719;BME280;39616;48.872;9.390;2023-05-23T11:22:34;98454.06;;;18.02;72.27
53719;BME280;39616;48.872;9.390;2023-05-23T11:25:08;98454.38;;;18.49;72.23
53719;BME280;39616;48.872;9.390;2023-05-23T11:27:40;98461.59;;;18.29;71.08
53719;BME280;39616;48.872;9.390;2023-05-23T11:30:14;98462.59;;;18.37;72.58
53719;BME280;39616;48.872;9.390;2023-05-23T11:32:53;98460.91;;;18.20;71.12
53719;BME280;39616;48.872;9.390;2023-05-23T11:35:26;98460.31;;;18.76;71.09
53719;BME280;39616;48.872;9.390;2023-05-23T11:37:57;98448.94;;;18.90;70.58
53719;BME280;39616;48.872;9.390;2023-05-23T11:40:35;98451.38;;;18.79;70.73
53719;BME280;39616;48.872;9.390;2023-05-23T11:43:15;98452.03;;;18.88;70.97
53719;BME280;39616;48.872;9.390;2023-05-23T11:45:46;98451.00;;;18.80;71.32
53719;BME280;39616;48.872;9.390;2023-05-23T11:48:17;98457.09;;;18.74;69.42
53719;BME280;39616;48.872;9.390;2023-05-23T11:50:49;98446.28;;;19.21;69.73
53719;BME280;39616;48.872;9.390;2023-05-23T11:53:21;98449.19;;;19.41;67.40
53719;BME280;39616;48.872;9.390;2023-05-23T11:56:01;98448.94;;;19.46;67.76
53719;BME280;39616;48.872;9.390;2023-05-23T11:58:34;98449.50;;;19.23;67.14
53719;BME280;39616;48.872;9.390;2023-05-23T12:01:07;98449.13;;;19.25;68.11
53719;BME280;39616;48.872;9.390;2023-05-23T12:03:44;98451.00;;;19.21;66.68
53719;BME280;39616;48.872;9.390;2023-05-23T12:06:18;98439.41;;;19.27;67.07
53719;BME280;39616;48.872;9.390;2023-05-23T12:08:51;98436.47;;;19.80;66.80
53719;BME280;39616;48.872;9.390;2023-05-23T12:11:21;98435.59;;;20.08;64.17
53719;BME280;39616;48.872;9.390;2023-05-23T12:13:53;98437.53;;;19.75;66.10
53719;BME280;39616;48.872;9.390;2023-05-23T12:16:23;98440.50;;;19.54;67.03
53719;BME280;39616;48.872;9.390;2023-05-23T12:18:54;98436.16;;;19.53;66.89
53719;BME280;39616;48.872;9.390;2023-05-23T12:21:25;98435.31;;;19.65;66.35
53719;BME280;39616;48.872;9.390;2023-05-23T12:23:56;98434.81;;;19.47;66.77
53719;BME280;39616;48.872;9.390;2023-05-23T12:26:26;98430.59;;;19.66;65.30
53719;BME280;39616;48.872;9.390;2023-05-23T12:28:56;98431.75;;;19.81;65.47
53719;BME280;39616;48.872;9.390;2023-05-23T12:31:29;98435.91;;;20.38;64.23
53719;BME280;39616;48.872;9.390;2023-05-23T12:34:00;98434.41;;;20.40;63.39
53719;BME280;39616;48.872;9.390;2023-05-23T12:36:30;98433.44;;;20.68;64.07
53719;BME280;39616;48.872;9.390;2023-05-23T12:39:02;98417.22;;;20.12;62.79
53719;BME280;39616;48.872;9.390;2023-05-23T12:41:33;98417.00;;;20.36;62.59
53719;BME280;39616;48.872;9.390;2023-05-23T12:44:03;98418.00;;;21.02;61.03
53719;BME280;39616;48.872;9.390;2023-05-23T12:46:34;98412.50;;;20.83;60.76
53719;BME280;39616;48.872;9.390;2023-05-23T12:49:04;98424.56;;;20.23;63.32
53719;BME280;39616;48.872;9.390;2023-05-23T12:51:35;98425.81;;;20.26;61.55
53719;BME280;39616;48.872;9.390;2023-05-23T12:54:07;98417.03;;;20.05;62.06
53719;BME280;39616;48.872;9.390;2023-05-23T12:56:37;98417.91;;;20.09;61.85
53719;BME280;39616;48.872;9.390;2023-05-23T12:59:08;98414.63;;;20.70;62.19
53719;BME280;39616;48.872;9.390;2023-05-23T13:01:38;98405.97;;;20.71;61.72
53719;BME280;39616;48.872;9.390;2023-05-23T13:04:08;98405.84;;;21.03;61.48
53719;BME280;39616;48.872;9.390;2023-05-23T13:06:39;98415.38;;;20.35;61.47
53719;BME280;39616;48.872;9.390;2023-05-23T13:09:09;98419.97;;;20.47;61.43
53719;BME280;39616;48.872;9.390;2023-05-23T13:11:40;98413.63;;;20.27;60.44
53719;BME280;39616;48.872;9.390;2023-05-23T13:14:10;98405.28;;;20.23;61.63
53719;BME280;39616;48.872;9.390;2023-05-23T13:16:41;98414.38;;;19.92;62.42
53719;BME280;39616;48.872;9.390;2023-05-23T13:19:11;98415.13;;;19.61;62.66
53719;BME280;39616;48.872;9.390;2023-05-23T13:21:42;98416.72;;;19.02;64.78
53719;BME280;39616;48.872;9.390;2023-05-23T13:24:12;98409.13;;;19.12;66.85
53719;BME280;39616;48.872;9.390;2023-05-23T13:26:42;98421.47;;;18.77;67.77
53719;BME280;39616;48.872;9.390;2023-05-23T13:29:13;98418.66;;;19.02;67.85
53719;BME280;39616;48.872;9.390;2023-05-23T13:31:43;98425.34;;;18.89;68.33
53719;BME280;39616;48.872;9.390;2023-05-23T13:34:13;98420.31;;;18.91;68.49
53719;BME280;39616;48.872;9.390;2023-05-23T13:36:43;98420.03;;;19.08;66.81